Shunyo Maru — JETM — position and weather

sailwx.info

Track history (hours):
 
Tides and Currents Weather Stations Pressure Air Temp Water Temp Dewpoint Dewpoint Depression Visibility Wind Speed Wind Dir Waves Ship Positions

Oceanographic research ship Shunyo Maru (Japan)

Detailed information on ship capabilities available from University of Delaware's Ocean Information Center.

Last reported at 2018-May-09 19:54 UTC. Time now 2018-Jun-23 04:46 UTC.
Position N 34°30' E 139°58'.
Warning: this ship's position is 44 days out of date.

Length 66 m; draft 4.8 m.

Type: Fishing. MMSI: 431494000.

Date/timePositionNaut miles runAvg speedWind from/ knotsBaromVisibWave heightAir tempDewpointWater temp
2018-May-09 19:54N 34°30' E 139°58'711.7
2018-May-09 19:17N 34°30' E 139°49'412.0
2018-May-09 18:59N 34°30' E 139°44'1611.2
2018-May-09 17:35N 34°33' E 139°26'110.5
2018-May-09 17:30N 34°33' E 139°25'510.1
2018-May-09 17:00N 34°34' E 139°19'510.3
2018-May-09 16:30N 34°34' E 139°12'510.3
2018-May-09 16:00N 34°33' E 139°06'510.2
2018-May-09 15:30N 34°33' E 138°60'5 9.9
2018-May-09 15:00N 34°32' E 138°54'510.5
2018-May-09 14:30N 34°33' E 138°48'510.0
2018-May-09 13:59N 34°37' E 138°43'510.5
2018-May-09 13:30N 34°42' E 138°41'610.8
2018-May-09 12:59N 34°47' E 138°41'510.5
2018-May-09 12:30N 34°52' E 138°41'510.5
2018-May-09 12:00N 34°58' E 138°41'510.7
2018-May-09 11:30N 35°03' E 138°41'2 4.4
2018-May-09 11:00N 35°04' E 138°39'2 4.7
2018-May-09 10:30N 35°04' E 138°36'1 1.9
2018-May-09 10:00N 35°04' E 138°37'2 4.8
2018-May-09 09:30N 35°03' E 138°40'2 4.3
2018-May-09 09:00N 35°04' E 138°42'2 4.8
2018-May-09 08:30N 35°05' E 138°45'1 1.8
2018-May-09 08:00N 35°05' E 138°46'2 4.8
2018-May-09 07:30N 35°04' E 138°43'2 5.0
2018-May-09 07:00N 35°03' E 138°41'510.9
2018-May-09 06:30N 35°02' E 138°34'4 7.0
2018-May-09 06:00N 35°01' E 138°30'0 0.0
2018-May-09 05:30N 35°01' E 138°30'0 0.0
2018-May-09 05:00N 35°01' E 138°30'0 0.0
2018-May-09 04:30N 35°01' E 138°30'0 0.0
2018-May-09 04:00N 35°01' E 138°30'0 0.0
2018-May-09 03:30N 35°01' E 138°30'0 0.0
2018-May-09 03:00N 35°01' E 138°30'0 0.0
2018-May-09 02:30N 35°01' E 138°30'0 0.0
2018-May-09 02:00N 35°01' E 138°30'0 0.0
2018-May-09 01:30N 35°01' E 138°30'0 0.0
2018-May-09 01:00N 35°01' E 138°30'0 0.0
2018-May-09 00:30N 35°01' E 138°30'0 0.0
2018-May-09 00:00N 35°01' E 138°30'0 0.0
2018-May-08 23:30N 35°01' E 138°30'0 0.0
2018-May-08 23:00N 35°01' E 138°30'0 0.0
2018-May-08 22:30N 35°01' E 138°30'0 0.0
2018-May-08 22:00N 35°01' E 138°30'0 0.0
2018-May-08 21:30N 35°01' E 138°30'0 0.0
2018-May-08 21:00N 35°01' E 138°30'0 0.0
2018-May-08 20:30N 35°01' E 138°30'0 0.0
2018-May-08 20:00N 35°01' E 138°30'0 0.0
2018-May-08 19:30N 35°01' E 138°30'0 0.0
2018-May-08 18:57N 35°01' E 138°30'0 0.0
2018-May-08 18:30N 35°01' E 138°30'0 0.0
2018-May-08 18:00N 35°01' E 138°30'0 0.0
2018-May-08 17:30N 35°01' E 138°30'0 0.0
2018-May-08 17:00N 35°01' E 138°30'0 0.0
2018-May-08 16:30N 35°01' E 138°30'0 0.0
2018-May-08 16:00N 35°01' E 138°30'0 0.0
2018-May-08 15:30N 35°01' E 138°30'0 0.0
2018-May-08 15:00N 35°01' E 138°30'0 0.0
2018-May-08 14:30N 35°01' E 138°30'0 0.0
2018-May-08 14:00N 35°01' E 138°30'0 0.0
2018-May-08 13:30N 35°01' E 138°30'0 0.0
2018-May-08 13:00N 35°01' E 138°30'0 0.0
2018-May-08 12:30N 35°01' E 138°30'0 0.0
2018-May-08 12:00N 35°01' E 138°30'0 0.0
2018-May-08 11:30N 35°01' E 138°30'0 0.0
2018-May-08 11:00N 35°01' E 138°30'0 0.0
2018-May-08 10:30N 35°01' E 138°30'0 0.0
2018-May-08 10:00N 35°01' E 138°30'0 0.0
2018-May-08 09:30N 35°01' E 138°30'0 0.0
2018-May-08 09:00N 35°01' E 138°30'0 0.0
2018-May-08 08:30N 35°01' E 138°30'0 0.0
2018-May-08 08:00N 35°01' E 138°30'0 0.0
2018-May-08 07:30N 35°01' E 138°30'0 0.0
2018-May-08 07:00N 35°01' E 138°30'0 0.0
2018-May-08 06:30N 35°01' E 138°30'0 0.0
2018-May-08 06:00N 35°01' E 138°30'0 0.0
2018-May-08 05:30N 35°01' E 138°30'0 0.0
2018-May-08 05:00N 35°01' E 138°30'0 0.0
2018-May-08 04:30N 35°01' E 138°30'0 0.0
2018-May-08 04:00N 35°01' E 138°30'0 0.0
2018-May-08 03:30N 35°01' E 138°30'0 0.0
2018-May-08 03:00N 35°01' E 138°30'0 0.0
2018-May-08 02:30N 35°01' E 138°30'0 0.0
2018-May-08 02:00N 35°01' E 138°30'0 0.0
2018-May-08 01:30N 35°01' E 138°30'0 0.0
2018-May-08 01:00N 35°01' E 138°30'0 0.0
2018-May-08 00:30N 35°01' E 138°30'0 0.0
2018-May-08 00:00N 35°01' E 138°30'0 0.0
2018-May-07 23:30N 35°01' E 138°30'0 0.0
2018-May-07 23:00N 35°01' E 138°30'0 0.0
2018-May-07 22:30N 35°01' E 138°30'0 0.0
2018-May-07 22:00N 35°01' E 138°30'0 0.0
2018-May-07 21:30N 35°01' E 138°30'0 0.0
2018-May-07 21:00N 35°01' E 138°30'0 0.0
2018-May-07 20:30N 35°01' E 138°30'0 0.0
2018-May-07 20:00N 35°01' E 138°30'0 0.0
2018-May-07 19:30N 35°01' E 138°30'0 0.0
2018-May-07 19:00N 35°01' E 138°30'0 0.0
2018-May-07 18:30N 35°01' E 138°30'0 0.0
2018-May-07 18:00N 35°01' E 138°30'0 0.0
2018-May-07 17:30N 35°01' E 138°30'0 0.0
2018-May-07 17:00N 35°01' E 138°30'0 0.0
2018-May-07 16:30N 35°01' E 138°30'0 0.0
2018-May-07 16:00N 35°01' E 138°30'0 0.0
2018-May-07 15:30N 35°01' E 138°30'0 0.0
2018-May-07 14:57N 35°01' E 138°30'0 0.0
2018-May-07 14:30N 35°01' E 138°30'0 0.0
2018-May-07 14:00N 35°01' E 138°30'0 0.0
2018-May-07 13:30N 35°01' E 138°30'0 0.0
2018-May-07 13:00N 35°01' E 138°30'0 0.0
2018-May-07 12:30N 35°01' E 138°30'0 0.0
2018-May-07 12:00N 35°01' E 138°30'0 0.0
2018-May-07 11:30N 35°01' E 138°30'0 0.0
2018-May-07 11:00N 35°01' E 138°30'0 0.0
2018-May-07 10:30N 35°01' E 138°30'0 0.0
2018-May-07 10:00N 35°01' E 138°30'0 0.0
2018-May-07 09:30N 35°01' E 138°30'0 0.0
2018-May-07 09:00N 35°01' E 138°30'0 0.0
2018-May-07 08:30N 35°01' E 138°30'0 0.0
2018-May-07 08:00N 35°01' E 138°30'0 0.0
2018-May-07 07:30N 35°01' E 138°30'0 0.0
2018-May-07 07:00N 35°01' E 138°30'0 0.0
2018-May-07 06:30N 35°01' E 138°30'0 0.0
2018-May-07 06:00N 35°01' E 138°30'0 0.0
2018-May-07 05:30N 35°01' E 138°30'0 0.0
2018-May-07 05:00N 35°01' E 138°30'0 0.0
2018-May-07 04:30N 35°01' E 138°30'0 0.0
2018-May-07 04:00N 35°01' E 138°30'0 0.0
2018-May-07 03:30N 35°01' E 138°30'0 0.0
2018-May-07 03:00N 35°01' E 138°30'0 0.0
2018-May-07 02:30N 35°01' E 138°30'0 0.0
2018-May-07 02:00N 35°01' E 138°30'0 0.0
2018-May-07 01:30N 35°01' E 138°30'0 0.0
2018-May-07 01:00N 35°01' E 138°30'0 0.0
2018-May-07 00:30N 35°01' E 138°30'0 0.0
2018-May-07 00:00N 35°01' E 138°30'0 0.0
2018-May-06 23:30N 35°01' E 138°30'0 0.0
2018-May-06 23:00N 35°01' E 138°30'0 0.0
2018-May-06 22:30N 35°01' E 138°30'0 0.0
2018-May-06 22:00N 35°01' E 138°30'0 0.0
2018-May-06 21:30N 35°01' E 138°30'0 0.0
2018-May-06 21:00N 35°01' E 138°30'0 0.0
2018-May-06 20:30N 35°01' E 138°30'0 0.0
2018-May-06 20:00N 35°01' E 138°30'0 0.0
2018-May-06 19:30N 35°01' E 138°30'0 0.0
2018-May-06 19:00N 35°01' E 138°30'0 0.0
2018-May-06 18:30N 35°01' E 138°30'0 0.0
2018-May-06 18:00N 35°01' E 138°30'0 0.0
2018-May-06 17:27N 35°01' E 138°30'0 0.0
2018-May-06 17:00N 35°01' E 138°30'0 0.0
2018-May-06 16:30N 35°01' E 138°30'0 0.0
2018-May-06 16:00N 35°01' E 138°30'0 0.0
2018-May-06 15:30N 35°01' E 138°30'0 0.0
2018-May-06 15:00N 35°01' E 138°30'0 0.0
2018-May-06 14:30N 35°01' E 138°30'0 0.0
2018-May-06 14:00N 35°01' E 138°30'0 0.0
2018-May-06 13:30N 35°01' E 138°30'0 0.0
2018-May-06 13:00N 35°01' E 138°30'0 0.0
2018-May-06 12:30N 35°01' E 138°30'0 0.0
2018-May-06 12:00N 35°01' E 138°30'0 0.0
2018-May-06 11:30N 35°01' E 138°30'0 0.0
2018-May-06 11:00N 35°01' E 138°30'0 0.0
2018-May-06 10:30N 35°01' E 138°30'0 0.0
2018-May-06 10:00N 35°01' E 138°30'0 0.0
2018-May-06 09:30N 35°01' E 138°30'0 0.0
2018-May-06 09:00N 35°01' E 138°30'0 0.0
2018-May-06 08:30N 35°01' E 138°30'0 0.0
2018-May-06 08:00N 35°01' E 138°30'0 0.0
2018-May-06 07:30N 35°01' E 138°30'0 0.0
2018-May-06 07:00N 35°01' E 138°30'0 0.0
2018-May-06 06:30N 35°01' E 138°30'0 0.0
2018-May-06 06:00N 35°01' E 138°30'0 0.0
2018-May-06 05:30N 35°01' E 138°30'0 0.0
2018-May-06 05:00N 35°01' E 138°30'0 0.0
2018-May-06 04:30N 35°01' E 138°30'0 0.0
2018-May-06 04:00N 35°01' E 138°30'0 0.0
2018-May-06 03:30N 35°01' E 138°30'0 0.0
2018-May-06 03:00N 35°01' E 138°30'0 0.0
2018-May-06 02:30N 35°01' E 138°30'0 0.0
2018-May-06 02:00N 35°01' E 138°30'0 0.0
2018-May-06 01:30N 35°01' E 138°30'0 0.0
2018-May-06 01:00N 35°01' E 138°30'0 0.0
2018-May-06 00:30N 35°01' E 138°30'0 0.0
2018-May-06 00:00N 35°01' E 138°30'0 0.0
2018-May-05 23:30N 35°01' E 138°30'0 0.0
2018-May-05 23:00N 35°01' E 138°30'0 0.0
2018-May-05 22:30N 35°01' E 138°30'0 0.0
2018-May-05 22:00N 35°01' E 138°30'0 0.0
2018-May-05 21:30N 35°01' E 138°30'0 0.0
2018-May-05 21:00N 35°01' E 138°30'0 0.0
2018-May-05 20:30N 35°01' E 138°30'0 0.0
2018-May-05 20:00N 35°01' E 138°30'0 0.0
2018-May-05 19:30N 35°01' E 138°30'0 0.0
2018-May-05 18:57N 35°01' E 138°30'0 0.0
2018-May-05 18:30N 35°01' E 138°30'0 0.0
2018-May-05 18:00N 35°01' E 138°30'0 0.0
2018-May-05 17:30N 35°01' E 138°30'0 0.0
2018-May-05 17:00N 35°01' E 138°30'0 0.0
2018-May-05 16:30N 35°01' E 138°30'0 0.0
2018-May-05 16:00N 35°01' E 138°30'0 0.0
2018-May-05 15:30N 35°01' E 138°30'0 0.0
2018-May-05 15:00N 35°01' E 138°30'0 0.0
2018-May-05 14:30N 35°01' E 138°30'0 0.0
2018-May-05 14:00N 35°01' E 138°30'0 0.0
2018-May-05 13:30N 35°01' E 138°30'0 0.0
2018-May-05 13:00N 35°01' E 138°30'0 0.0
2018-May-05 12:30N 35°01' E 138°30'0 0.0
2018-May-05 12:00N 35°01' E 138°30'0 0.0
2018-May-05 11:30N 35°01' E 138°30'0 0.0
2018-May-05 11:00N 35°01' E 138°30'0 0.0
2018-May-05 10:30N 35°01' E 138°30'0 0.0
2018-May-05 10:00N 35°01' E 138°30'0 0.0
2018-May-05 09:30N 35°01' E 138°30'0 0.0
2018-May-05 09:00N 35°01' E 138°30'0 0.0
2018-May-05 08:30N 35°01' E 138°30'0 0.0
2018-May-05 08:00N 35°01' E 138°30'0 0.0
2018-May-05 07:30N 35°01' E 138°30'0 0.0
2018-May-05 07:00N 35°01' E 138°30'0 0.0
2018-May-05 06:30N 35°01' E 138°30'0 0.0
2018-May-05 06:00N 35°01' E 138°30'0 0.0
2018-May-05 05:30N 35°01' E 138°30'0 0.0
2018-May-05 05:00N 35°01' E 138°30'0 0.0
2018-May-05 04:30N 35°01' E 138°30'0 0.0
2018-May-05 04:00N 35°01' E 138°30'0 0.0
2018-May-05 03:30N 35°01' E 138°30'0 0.0
2018-May-05 03:00N 35°01' E 138°30'0 0.0
2018-May-05 02:30N 35°01' E 138°30'0 0.0
2018-May-05 02:00N 35°01' E 138°30'0 0.0
2018-May-05 01:30N 35°01' E 138°30'0 0.0
2018-May-05 01:00N 35°01' E 138°30'0 0.0
2018-May-05 00:30N 35°01' E 138°30'0 0.0
2018-May-05 00:00N 35°01' E 138°30'0 0.0
2018-May-04 23:30N 35°01' E 138°30'0 0.0
2018-May-04 22:57N 35°01' E 138°30'0 0.0
2018-May-04 22:30N 35°01' E 138°30'0 0.0
2018-May-04 22:00N 35°01' E 138°30'0 0.0
2018-May-04 21:30N 35°01' E 138°30'0 0.0
2018-May-04 21:00N 35°01' E 138°30'0 0.0
2018-May-04 20:30N 35°01' E 138°30'0 0.0
2018-May-04 20:00N 35°01' E 138°30'0 0.0
2018-May-04 19:30N 35°01' E 138°30'0 0.0
2018-May-04 19:00N 35°01' E 138°30'0 0.0
2018-May-04 18:30N 35°01' E 138°30'0 0.0
2018-May-04 17:57N 35°01' E 138°30'0 0.0
2018-May-04 17:30N 35°01' E 138°30'0 0.0
2018-May-04 17:00N 35°01' E 138°30'0 0.0
2018-May-04 16:30N 35°01' E 138°30'0 0.0
2018-May-04 16:00N 35°01' E 138°30'0 0.0
2018-May-04 15:30N 35°01' E 138°30'0 0.0
2018-May-04 15:00N 35°01' E 138°30'0 0.0
2018-May-04 14:30N 35°01' E 138°30'0 0.0
2018-May-04 14:00N 35°01' E 138°30'0 0.0
2018-May-04 13:30N 35°01' E 138°30'0 0.0
2018-May-04 13:00N 35°01' E 138°30'0 0.0
2018-May-04 12:30N 35°01' E 138°30'0 0.0
2018-May-04 12:00N 35°01' E 138°30'0 0.0
2018-May-04 11:30N 35°01' E 138°30'0 0.0
2018-May-04 11:00N 35°01' E 138°30'0 0.0
2018-May-04 10:30N 35°01' E 138°30'0 0.0
2018-May-04 10:00N 35°01' E 138°30'0 0.0
2018-May-04 09:30N 35°01' E 138°30'0 0.0
2018-May-04 09:00N 35°01' E 138°30'0 0.0
2018-May-04 08:30N 35°01' E 138°30'0 0.0
2018-May-04 08:00N 35°01' E 138°30'0 0.0
2018-May-04 07:30N 35°01' E 138°30'0 0.0
2018-May-04 07:00N 35°01' E 138°30'0 0.0
2018-May-04 06:30N 35°01' E 138°30'0 0.0
2018-May-04 06:00N 35°01' E 138°30'0 0.0
2018-May-04 05:30N 35°01' E 138°30'0 0.0
2018-May-04 05:00N 35°01' E 138°30'0 0.0
2018-May-04 04:30N 35°01' E 138°30'0 0.0
2018-May-04 04:00N 35°01' E 138°30'0 0.0
2018-May-04 03:30N 35°01' E 138°30'0 0.0
2018-May-04 03:00N 35°01' E 138°30'0 0.0
2018-May-04 02:30N 35°01' E 138°30'0 0.0
2018-May-04 02:00N 35°01' E 138°30'0 0.0
2018-May-04 01:30N 35°01' E 138°30'0 0.0
2018-May-04 01:00N 35°01' E 138°30'0 0.0
2018-May-04 00:30N 35°01' E 138°30'0 0.0
2018-May-04 00:00N 35°01' E 138°30'0 0.0
2018-May-03 23:30N 35°01' E 138°30'0 0.0
2018-May-03 23:00N 35°01' E 138°30'0 0.0
2018-May-03 22:30N 35°01' E 138°30'0 0.0
2018-May-03 22:00N 35°01' E 138°30'0 0.0
2018-May-03 21:30N 35°01' E 138°30'0 0.0
2018-May-03 21:00N 35°01' E 138°30'0 0.0
2018-May-03 20:30N 35°01' E 138°30'0 0.0
2018-May-03 20:00N 35°01' E 138°30'0 0.0
2018-May-03 19:30N 35°01' E 138°30'0 0.0
2018-May-03 19:00N 35°01' E 138°30'0 0.0
2018-May-03 18:30N 35°01' E 138°30'0 0.0
2018-May-03 18:00N 35°01' E 138°30'0 0.0
2018-May-03 17:30N 35°01' E 138°30'0 0.0
2018-May-03 17:00N 35°01' E 138°30'0 0.0
2018-May-03 16:30N 35°01' E 138°30'0 0.0
2018-May-03 16:00N 35°01' E 138°30'0 0.0
2018-May-03 15:30N 35°01' E 138°30'0 0.0
2018-May-03 15:00N 35°01' E 138°30'0 0.0
2018-May-03 14:30N 35°01' E 138°30'0 0.0
2018-May-03 14:00N 35°01' E 138°30'0 0.0
2018-May-03 13:30N 35°01' E 138°30'0 0.0
2018-May-03 13:00N 35°01' E 138°30'0 0.0
2018-May-03 12:30N 35°01' E 138°30'0 0.0
2018-May-03 12:00N 35°01' E 138°30'0 0.0
2018-May-03 11:30N 35°01' E 138°30'0 0.0
2018-May-03 11:00N 35°01' E 138°30'0 0.0
2018-May-03 10:30N 35°01' E 138°30'0 0.0
2018-May-03 10:00N 35°01' E 138°30'0 0.0
2018-May-03 09:30N 35°01' E 138°30'0 0.0
2018-May-03 08:57N 35°01' E 138°30'0 0.0
2018-May-03 08:30N 35°01' E 138°30'0 0.0
2018-May-03 08:00N 35°01' E 138°30'0 0.0
2018-May-03 07:30N 35°01' E 138°30'0 0.0
2018-May-03 07:00N 35°01' E 138°30'0 0.0
2018-May-03 06:30N 35°01' E 138°30'0 0.0
2018-May-03 06:00N 35°01' E 138°30'0 0.0
2018-May-03 05:30N 35°01' E 138°30'0 0.0
2018-May-03 05:00N 35°01' E 138°30'0 0.0
2018-May-03 04:30N 35°01' E 138°30'0 0.0
2018-May-03 04:00N 35°01' E 138°30'0 0.0
2018-May-03 03:27N 35°01' E 138°30'0 0.0
2018-May-03 03:00N 35°01' E 138°30'0 0.0
2018-May-03 02:30N 35°01' E 138°30'0 0.0
2018-May-03 02:00N 35°01' E 138°30'0 0.0
2018-May-03 01:30N 35°01' E 138°30'0 0.0
2018-May-03 01:00N 35°01' E 138°30'0 0.0
2018-May-03 00:30N 35°01' E 138°30'0 0.0
2018-May-03 00:00N 35°01' E 138°30'0 0.0
2018-May-02 23:30N 35°01' E 138°30'0 0.0
2018-May-02 23:00N 35°01' E 138°30'0 0.0
2018-May-02 22:30N 35°01' E 138°30'0 0.0
2018-May-02 22:00N 35°01' E 138°30'0 0.0
2018-May-02 21:30N 35°01' E 138°30'0 0.0
2018-May-02 21:00N 35°01' E 138°30'0 0.0
2018-May-02 20:30N 35°01' E 138°30'0 0.0
2018-May-02 20:00N 35°01' E 138°30'0 0.0
2018-May-02 19:30N 35°01' E 138°30'0 0.0
2018-May-02 19:00N 35°01' E 138°30'0 0.0
2018-May-02 18:30N 35°01' E 138°30'0 0.0
2018-May-02 18:00N 35°01' E 138°30'0 0.0
2018-May-02 17:30N 35°01' E 138°30'0 0.0
2018-May-02 17:00N 35°01' E 138°30'0 0.0
2018-May-02 16:30N 35°01' E 138°30'0 0.0
2018-May-02 16:00N 35°01' E 138°30'0 0.0
2018-May-02 15:30N 35°01' E 138°30'0 0.0
2018-May-02 15:00N 35°01' E 138°30'0 0.0
2018-May-02 14:30N 35°01' E 138°30'0 0.0
2018-May-02 14:00N 35°01' E 138°30'0 0.0
2018-May-02 13:30N 35°01' E 138°30'0 0.0
2018-May-02 13:00N 35°01' E 138°30'0 0.0
2018-May-02 12:30N 35°01' E 138°30'0 0.0
2018-May-02 12:00N 35°01' E 138°30'0 0.0
2018-May-02 11:30N 35°01' E 138°30'0 0.0
2018-May-02 11:00N 35°01' E 138°30'0 0.0
2018-May-02 10:30N 35°01' E 138°30'0 0.0
2018-May-02 10:00N 35°01' E 138°30'0 0.0
2018-May-02 09:30N 35°01' E 138°30'0 0.0
2018-May-02 09:00N 35°01' E 138°30'0 0.0
2018-May-02 08:30N 35°01' E 138°30'0 0.0
2018-May-02 08:00N 35°01' E 138°30'0 0.0
2018-May-02 07:30N 35°01' E 138°30'0 0.0
2018-May-02 07:00N 35°01' E 138°30'0 0.0
2018-May-02 06:30N 35°01' E 138°30'0 0.0
2018-May-02 06:00N 35°01' E 138°30'0 0.0
2018-May-02 05:30N 35°01' E 138°30'0 0.0
2018-May-02 05:00N 35°01' E 138°30'0 0.0
2018-May-02 04:30N 35°01' E 138°30'0 0.0
2018-May-02 04:00N 35°01' E 138°30'0 0.0
2018-May-02 03:30N 35°01' E 138°30'0 0.0
2018-May-02 03:00N 35°01' E 138°30'0 0.0
2018-May-02 02:30N 35°01' E 138°30'0 0.0
2018-May-02 02:00N 35°01' E 138°30'0 0.0
2018-May-02 01:30N 35°01' E 138°30'0 0.0
2018-May-02 01:00N 35°01' E 138°30'0 0.0
2018-May-02 00:30N 35°01' E 138°30'0 0.0
2018-May-02 00:00N 35°01' E 138°30'0 0.0
2018-May-01 23:30N 35°01' E 138°30'0 0.0
2018-May-01 23:00N 35°01' E 138°30'0 0.0
2018-May-01 22:30N 35°01' E 138°30'0 0.0
2018-May-01 22:00N 35°01' E 138°30'0 0.0
2018-May-01 21:30N 35°01' E 138°30'0 0.0
2018-May-01 21:00N 35°01' E 138°30'0 0.0
2018-May-01 20:30N 35°01' E 138°30'0 0.0
2018-May-01 20:00N 35°01' E 138°30'0 0.0
2018-May-01 19:30N 35°01' E 138°30'0 0.0
2018-May-01 19:00N 35°01' E 138°30'0 0.0
2018-May-01 18:30N 35°01' E 138°30'0 0.0
2018-May-01 18:00N 35°01' E 138°30'0 0.0
2018-May-01 17:30N 35°01' E 138°30'0 0.0
2018-May-01 17:00N 35°01' E 138°30'0 0.0
2018-May-01 16:30N 35°01' E 138°30'0 0.0
2018-May-01 16:00N 35°01' E 138°30'0 0.0
2018-May-01 15:30N 35°01' E 138°30'0 0.0
2018-May-01 15:00N 35°01' E 138°30'0 0.0
2018-May-01 14:30N 35°01' E 138°30'0 0.0
2018-May-01 14:00N 35°01' E 138°30'0 0.0
2018-May-01 13:30N 35°01' E 138°30'0 0.0
2018-May-01 13:00N 35°01' E 138°30'0 0.0
2018-May-01 12:30N 35°01' E 138°30'0 0.0
2018-May-01 11:57N 35°01' E 138°30'0 0.0
2018-May-01 11:30N 35°01' E 138°30'0 0.0
2018-May-01 11:00N 35°01' E 138°30'0 0.0
2018-May-01 10:30N 35°01' E 138°30'0 0.0
2018-May-01 10:00N 35°01' E 138°30'0 0.0
2018-May-01 09:30N 35°01' E 138°30'0 0.0
2018-May-01 09:00N 35°01' E 138°30'0 0.0
2018-May-01 08:30N 35°01' E 138°30'0 0.0
2018-May-01 08:00N 35°01' E 138°30'0 0.0
2018-May-01 07:30N 35°01' E 138°30'0 0.0
2018-May-01 07:00N 35°01' E 138°30'0 0.0
2018-May-01 06:30N 35°01' E 138°30'0 0.0
2018-May-01 06:00N 35°01' E 138°30'0 0.0
2018-May-01 05:30N 35°01' E 138°30'0 0.0
2018-May-01 05:00N 35°01' E 138°30'0 0.0
2018-May-01 04:30N 35°01' E 138°30'0 0.0
2018-May-01 04:00N 35°01' E 138°30'0 0.0
2018-May-01 03:30N 35°01' E 138°30'0 0.0
2018-May-01 03:00N 35°01' E 138°30'0 0.0
2018-May-01 02:30N 35°01' E 138°30'0 0.0
2018-May-01 02:00N 35°01' E 138°30'0 0.0
2018-May-01 01:30N 35°01' E 138°30'0 0.0
2018-May-01 01:00N 35°01' E 138°30'0 0.0
2018-May-01 00:30N 35°01' E 138°30'0 0.0
2018-May-01 00:00N 35°01' E 138°30'0 0.0
2018-Apr-30 23:24N 35°01' E 138°30'0 0.0
2018-Apr-30 23:00N 35°01' E 138°30'0 0.0
2018-Apr-30 22:30N 35°01' E 138°30'0 0.0
2018-Apr-30 22:00N 35°01' E 138°30'0 0.0
2018-Apr-30 21:30N 35°01' E 138°30'0 0.0
2018-Apr-30 21:00N 35°01' E 138°30'0 0.0
2018-Apr-30 20:30N 35°01' E 138°30'0 0.0
2018-Apr-30 20:00N 35°01' E 138°30'0 0.0
2018-Apr-30 19:30N 35°01' E 138°30'0 0.0
2018-Apr-30 19:00N 35°01' E 138°30'0 0.0
2018-Apr-30 18:30N 35°01' E 138°30'0 0.0
2018-Apr-30 18:00N 35°01' E 138°30'0 0.0
2018-Apr-30 17:30N 35°01' E 138°30'0 0.0
2018-Apr-30 17:00N 35°01' E 138°30'0 0.0
2018-Apr-30 16:30N 35°01' E 138°30'0 0.0
2018-Apr-30 16:00N 35°01' E 138°30'0 0.0
2018-Apr-30 15:30N 35°01' E 138°30'0 0.0
2018-Apr-30 15:00N 35°01' E 138°30'0 0.0
2018-Apr-30 14:30N 35°01' E 138°30'0 0.0
2018-Apr-30 14:00N 35°01' E 138°30'0 0.0
2018-Apr-30 13:30N 35°01' E 138°30'0 0.0
2018-Apr-30 13:00N 35°01' E 138°30'0 0.0
2018-Apr-30 12:30N 35°01' E 138°30'0 0.0
2018-Apr-30 12:00N 35°01' E 138°30'0 0.0
2018-Apr-30 11:30N 35°01' E 138°30'0 0.0
2018-Apr-30 11:00N 35°01' E 138°30'0 0.0
2018-Apr-30 10:30N 35°01' E 138°30'0 0.0
2018-Apr-30 10:00N 35°01' E 138°30'0 0.0
2018-Apr-30 09:30N 35°01' E 138°30'0 0.0
2018-Apr-30 09:00N 35°01' E 138°30'0 0.0
2018-Apr-30 08:30N 35°01' E 138°30'0 0.0
2018-Apr-30 08:00N 35°01' E 138°30'0 0.0
2018-Apr-30 07:30N 35°01' E 138°30'0 0.0
2018-Apr-30 07:00N 35°01' E 138°30'0 0.0
2018-Apr-30 06:30N 35°01' E 138°30'0 0.0
2018-Apr-30 06:00N 35°01' E 138°30'0 0.0
2018-Apr-30 05:30N 35°01' E 138°30'0 0.0
2018-Apr-30 05:00N 35°01' E 138°30'0 0.0
2018-Apr-30 04:30N 35°01' E 138°30'0 0.0
2018-Apr-30 04:00N 35°01' E 138°30'0 0.0
2018-Apr-30 03:30N 35°01' E 138°30'0 0.0
2018-Apr-30 03:00N 35°01' E 138°30'0 0.0
2018-Apr-30 02:30N 35°01' E 138°30'0 0.0
2018-Apr-30 02:00N 35°01' E 138°30'0 0.0
2018-Apr-30 01:30N 35°01' E 138°30'0 0.0
2018-Apr-30 01:00N 35°01' E 138°30'0 0.0
2018-Apr-30 00:30N 35°01' E 138°30'0 0.0
2018-Apr-30 00:00N 35°01' E 138°30'0 0.0
2018-Apr-29 23:30N 35°01' E 138°30'0 0.0
2018-Apr-29 23:00N 35°01' E 138°30'0 0.0
2018-Apr-29 22:30N 35°01' E 138°30'0 0.0
2018-Apr-29 22:00N 35°01' E 138°30'0 0.0
2018-Apr-29 21:30N 35°01' E 138°30'0 0.0
2018-Apr-29 21:00N 35°01' E 138°30'0 0.0
2018-Apr-29 20:30N 35°01' E 138°30'0 0.0
2018-Apr-29 20:00N 35°01' E 138°30'  
Track history (hours):
 
Tides and Currents Weather Stations Pressure Air Temp Water Temp Dewpoint Dewpoint Depression Visibility Wind Speed Wind Dir Waves Ship Positions

Oceanographic research ship Shunyo Maru (Japan)

Detailed information on ship capabilities available from University of Delaware's Ocean Information Center.

Last reported at 2018-May-09 19:54 UTC. Time now 2018-Jun-23 04:46 UTC.
Position N 34°30' E 139°58'.
Warning: this ship's position is 44 days out of date.

Length 66 m; draft 4.8 m.

Type: Fishing. MMSI: 431494000.

Date/timePositionNaut miles runAvg speedWind from/ knotsBaromVisibWave heightAir tempDewpointWater temp
2018-May-09 19:54N 34°30' E 139°58'711.7
2018-May-09 19:17N 34°30' E 139°49'412.0
2018-May-09 18:59N 34°30' E 139°44'1611.2
2018-May-09 17:35N 34°33' E 139°26'110.5
2018-May-09 17:30N 34°33' E 139°25'510.1
2018-May-09 17:00N 34°34' E 139°19'510.3
2018-May-09 16:30N 34°34' E 139°12'510.3
2018-May-09 16:00N 34°33' E 139°06'510.2
2018-May-09 15:30N 34°33' E 138°60'5 9.9
2018-May-09 15:00N 34°32' E 138°54'510.5
2018-May-09 14:30N 34°33' E 138°48'510.0
2018-May-09 13:59N 34°37' E 138°43'510.5
2018-May-09 13:30N 34°42' E 138°41'610.8
2018-May-09 12:59N 34°47' E 138°41'510.5
2018-May-09 12:30N 34°52' E 138°41'510.5
2018-May-09 12:00N 34°58' E 138°41'510.7
2018-May-09 11:30N 35°03' E 138°41'2 4.4
2018-May-09 11:00N 35°04' E 138°39'2 4.7
2018-May-09 10:30N 35°04' E 138°36'1 1.9
2018-May-09 10:00N 35°04' E 138°37'2 4.8
2018-May-09 09:30N 35°03' E 138°40'2 4.3
2018-May-09 09:00N 35°04' E 138°42'2 4.8
2018-May-09 08:30N 35°05' E 138°45'1 1.8
2018-May-09 08:00N 35°05' E 138°46'2 4.8
2018-May-09 07:30N 35°04' E 138°43'2 5.0
2018-May-09 07:00N 35°03' E 138°41'510.9
2018-May-09 06:30N 35°02' E 138°34'4 7.0
2018-May-09 06:00N 35°01' E 138°30'0 0.0
2018-May-09 05:30N 35°01' E 138°30'0 0.0
2018-May-09 05:00N 35°01' E 138°30'0 0.0
2018-May-09 04:30N 35°01' E 138°30'0 0.0
2018-May-09 04:00N 35°01' E 138°30'0 0.0
2018-May-09 03:30N 35°01' E 138°30'0 0.0
2018-May-09 03:00N 35°01' E 138°30'0 0.0
2018-May-09 02:30N 35°01' E 138°30'0 0.0
2018-May-09 02:00N 35°01' E 138°30'0 0.0
2018-May-09 01:30N 35°01' E 138°30'0 0.0
2018-May-09 01:00N 35°01' E 138°30'0 0.0
2018-May-09 00:30N 35°01' E 138°30'0 0.0
2018-May-09 00:00N 35°01' E 138°30'0 0.0
2018-May-08 23:30N 35°01' E 138°30'0 0.0
2018-May-08 23:00N 35°01' E 138°30'0 0.0
2018-May-08 22:30N 35°01' E 138°30'0 0.0
2018-May-08 22:00N 35°01' E 138°30'0 0.0
2018-May-08 21:30N 35°01' E 138°30'0 0.0
2018-May-08 21:00N 35°01' E 138°30'0 0.0
2018-May-08 20:30N 35°01' E 138°30'0 0.0
2018-May-08 20:00N 35°01' E 138°30'0 0.0
2018-May-08 19:30N 35°01' E 138°30'0 0.0
2018-May-08 18:57N 35°01' E 138°30'0 0.0
2018-May-08 18:30N 35°01' E 138°30'0 0.0
2018-May-08 18:00N 35°01' E 138°30'0 0.0
2018-May-08 17:30N 35°01' E 138°30'0 0.0
2018-May-08 17:00N 35°01' E 138°30'0 0.0
2018-May-08 16:30N 35°01' E 138°30'0 0.0
2018-May-08 16:00N 35°01' E 138°30'0 0.0
2018-May-08 15:30N 35°01' E 138°30'0 0.0
2018-May-08 15:00N 35°01' E 138°30'0 0.0
2018-May-08 14:30N 35°01' E 138°30'0 0.0
2018-May-08 14:00N 35°01' E 138°30'0 0.0
2018-May-08 13:30N 35°01' E 138°30'0 0.0
2018-May-08 13:00N 35°01' E 138°30'0 0.0
2018-May-08 12:30N 35°01' E 138°30'0 0.0
2018-May-08 12:00N 35°01' E 138°30'0 0.0
2018-May-08 11:30N 35°01' E 138°30'0 0.0
2018-May-08 11:00N 35°01' E 138°30'0 0.0
2018-May-08 10:30N 35°01' E 138°30'0 0.0
2018-May-08 10:00N 35°01' E 138°30'0 0.0
2018-May-08 09:30N 35°01' E 138°30'0 0.0
2018-May-08 09:00N 35°01' E 138°30'0 0.0
2018-May-08 08:30N 35°01' E 138°30'0 0.0
2018-May-08 08:00N 35°01' E 138°30'0 0.0
2018-May-08 07:30N 35°01' E 138°30'0 0.0
2018-May-08 07:00N 35°01' E 138°30'0 0.0
2018-May-08 06:30N 35°01' E 138°30'0 0.0
2018-May-08 06:00N 35°01' E 138°30'0 0.0
2018-May-08 05:30N 35°01' E 138°30'0 0.0
2018-May-08 05:00N 35°01' E 138°30'0 0.0
2018-May-08 04:30N 35°01' E 138°30'0 0.0
2018-May-08 04:00N 35°01' E 138°30'0 0.0
2018-May-08 03:30N 35°01' E 138°30'0 0.0
2018-May-08 03:00N 35°01' E 138°30'0 0.0
2018-May-08 02:30N 35°01' E 138°30'0 0.0
2018-May-08 02:00N 35°01' E 138°30'0 0.0
2018-May-08 01:30N 35°01' E 138°30'0 0.0
2018-May-08 01:00N 35°01' E 138°30'0 0.0
2018-May-08 00:30N 35°01' E 138°30'0 0.0
2018-May-08 00:00N 35°01' E 138°30'0 0.0
2018-May-07 23:30N 35°01' E 138°30'0 0.0
2018-May-07 23:00N 35°01' E 138°30'0 0.0
2018-May-07 22:30N 35°01' E 138°30'0 0.0
2018-May-07 22:00N 35°01' E 138°30'0 0.0
2018-May-07 21:30N 35°01' E 138°30'0 0.0
2018-May-07 21:00N 35°01' E 138°30'0 0.0
2018-May-07 20:30N 35°01' E 138°30'0 0.0
2018-May-07 20:00N 35°01' E 138°30'0 0.0
2018-May-07 19:30N 35°01' E 138°30'0 0.0
2018-May-07 19:00N 35°01' E 138°30'0 0.0
2018-May-07 18:30N 35°01' E 138°30'0 0.0
2018-May-07 18:00N 35°01' E 138°30'0 0.0
2018-May-07 17:30N 35°01' E 138°30'0 0.0
2018-May-07 17:00N 35°01' E 138°30'0 0.0
2018-May-07 16:30N 35°01' E 138°30'0 0.0
2018-May-07 16:00N 35°01' E 138°30'0 0.0
2018-May-07 15:30N 35°01' E 138°30'0 0.0
2018-May-07 14:57N 35°01' E 138°30'0 0.0
2018-May-07 14:30N 35°01' E 138°30'0 0.0
2018-May-07 14:00N 35°01' E 138°30'0 0.0
2018-May-07 13:30N 35°01' E 138°30'0 0.0
2018-May-07 13:00N 35°01' E 138°30'0 0.0
2018-May-07 12:30N 35°01' E 138°30'0 0.0
2018-May-07 12:00N 35°01' E 138°30'0 0.0
2018-May-07 11:30N 35°01' E 138°30'0 0.0
2018-May-07 11:00N 35°01' E 138°30'0 0.0
2018-May-07 10:30N 35°01' E 138°30'0 0.0
2018-May-07 10:00N 35°01' E 138°30'0 0.0
2018-May-07 09:30N 35°01' E 138°30'0 0.0
2018-May-07 09:00N 35°01' E 138°30'0 0.0
2018-May-07 08:30N 35°01' E 138°30'0 0.0
2018-May-07 08:00N 35°01' E 138°30'0 0.0
2018-May-07 07:30N 35°01' E 138°30'0 0.0
2018-May-07 07:00N 35°01' E 138°30'0 0.0
2018-May-07 06:30N 35°01' E 138°30'0 0.0
2018-May-07 06:00N 35°01' E 138°30'0 0.0
2018-May-07 05:30N 35°01' E 138°30'0 0.0
2018-May-07 05:00N 35°01' E 138°30'0 0.0
2018-May-07 04:30N 35°01' E 138°30'0 0.0
2018-May-07 04:00N 35°01' E 138°30'0 0.0
2018-May-07 03:30N 35°01' E 138°30'0 0.0
2018-May-07 03:00N 35°01' E 138°30'0 0.0
2018-May-07 02:30N 35°01' E 138°30'0 0.0
2018-May-07 02:00N 35°01' E 138°30'0 0.0
2018-May-07 01:30N 35°01' E 138°30'0 0.0
2018-May-07 01:00N 35°01' E 138°30'0 0.0
2018-May-07 00:30N 35°01' E 138°30'0 0.0
2018-May-07 00:00N 35°01' E 138°30'0 0.0
2018-May-06 23:30N 35°01' E 138°30'0 0.0
2018-May-06 23:00N 35°01' E 138°30'0 0.0
2018-May-06 22:30N 35°01' E 138°30'0 0.0
2018-May-06 22:00N 35°01' E 138°30'0 0.0
2018-May-06 21:30N 35°01' E 138°30'0 0.0
2018-May-06 21:00N 35°01' E 138°30'0 0.0
2018-May-06 20:30N 35°01' E 138°30'0 0.0
2018-May-06 20:00N 35°01' E 138°30'0 0.0
2018-May-06 19:30N 35°01' E 138°30'0 0.0
2018-May-06 19:00N 35°01' E 138°30'0 0.0
2018-May-06 18:30N 35°01' E 138°30'0 0.0
2018-May-06 18:00N 35°01' E 138°30'0 0.0
2018-May-06 17:27N 35°01' E 138°30'0 0.0
2018-May-06 17:00N 35°01' E 138°30'0 0.0
2018-May-06 16:30N 35°01' E 138°30'0 0.0
2018-May-06 16:00N 35°01' E 138°30'0 0.0
2018-May-06 15:30N 35°01' E 138°30'0 0.0
2018-May-06 15:00N 35°01' E 138°30'0 0.0
2018-May-06 14:30N 35°01' E 138°30'0 0.0
2018-May-06 14:00N 35°01' E 138°30'0 0.0
2018-May-06 13:30N 35°01' E 138°30'0 0.0
2018-May-06 13:00N 35°01' E 138°30'0 0.0
2018-May-06 12:30N 35°01' E 138°30'0 0.0
2018-May-06 12:00N 35°01' E 138°30'0 0.0
2018-May-06 11:30N 35°01' E 138°30'0 0.0
2018-May-06 11:00N 35°01' E 138°30'0 0.0
2018-May-06 10:30N 35°01' E 138°30'0 0.0
2018-May-06 10:00N 35°01' E 138°30'0 0.0
2018-May-06 09:30N 35°01' E 138°30'0 0.0
2018-May-06 09:00N 35°01' E 138°30'0 0.0
2018-May-06 08:30N 35°01' E 138°30'0 0.0
2018-May-06 08:00N 35°01' E 138°30'0 0.0
2018-May-06 07:30N 35°01' E 138°30'0 0.0
2018-May-06 07:00N 35°01' E 138°30'0 0.0
2018-May-06 06:30N 35°01' E 138°30'0 0.0
2018-May-06 06:00N 35°01' E 138°30'0 0.0
2018-May-06 05:30N 35°01' E 138°30'0 0.0
2018-May-06 05:00N 35°01' E 138°30'0 0.0
2018-May-06 04:30N 35°01' E 138°30'0 0.0
2018-May-06 04:00N 35°01' E 138°30'0 0.0
2018-May-06 03:30N 35°01' E 138°30'0 0.0
2018-May-06 03:00N 35°01' E 138°30'0 0.0
2018-May-06 02:30N 35°01' E 138°30'0 0.0
2018-May-06 02:00N 35°01' E 138°30'0 0.0
2018-May-06 01:30N 35°01' E 138°30'0 0.0
2018-May-06 01:00N 35°01' E 138°30'0 0.0
2018-May-06 00:30N 35°01' E 138°30'0 0.0
2018-May-06 00:00N 35°01' E 138°30'0 0.0
2018-May-05 23:30N 35°01' E 138°30'0 0.0
2018-May-05 23:00N 35°01' E 138°30'0 0.0
2018-May-05 22:30N 35°01' E 138°30'0 0.0
2018-May-05 22:00N 35°01' E 138°30'0 0.0
2018-May-05 21:30N 35°01' E 138°30'0 0.0
2018-May-05 21:00N 35°01' E 138°30'0 0.0
2018-May-05 20:30N 35°01' E 138°30'0 0.0
2018-May-05 20:00N 35°01' E 138°30'0 0.0
2018-May-05 19:30N 35°01' E 138°30'0 0.0
2018-May-05 18:57N 35°01' E 138°30'0 0.0
2018-May-05 18:30N 35°01' E 138°30'0 0.0
2018-May-05 18:00N 35°01' E 138°30'0 0.0
2018-May-05 17:30N 35°01' E 138°30'0 0.0
2018-May-05 17:00N 35°01' E 138°30'0 0.0
2018-May-05 16:30N 35°01' E 138°30'0 0.0
2018-May-05 16:00N 35°01' E 138°30'0 0.0
2018-May-05 15:30N 35°01' E 138°30'0 0.0
2018-May-05 15:00N 35°01' E 138°30'0 0.0
2018-May-05 14:30N 35°01' E 138°30'0 0.0
2018-May-05 14:00N 35°01' E 138°30'0 0.0
2018-May-05 13:30N 35°01' E 138°30'0 0.0
2018-May-05 13:00N 35°01' E 138°30'0 0.0
2018-May-05 12:30N 35°01' E 138°30'0 0.0
2018-May-05 12:00N 35°01' E 138°30'0 0.0
2018-May-05 11:30N 35°01' E 138°30'0 0.0
2018-May-05 11:00N 35°01' E 138°30'0 0.0
2018-May-05 10:30N 35°01' E 138°30'0 0.0
2018-May-05 10:00N 35°01' E 138°30'0 0.0
2018-May-05 09:30N 35°01' E 138°30'0 0.0
2018-May-05 09:00N 35°01' E 138°30'0 0.0
2018-May-05 08:30N 35°01' E 138°30'0 0.0
2018-May-05 08:00N 35°01' E 138°30'0 0.0
2018-May-05 07:30N 35°01' E 138°30'0 0.0
2018-May-05 07:00N 35°01' E 138°30'0 0.0
2018-May-05 06:30N 35°01' E 138°30'0 0.0
2018-May-05 06:00N 35°01' E 138°30'0 0.0
2018-May-05 05:30N 35°01' E 138°30'0 0.0
2018-May-05 05:00N 35°01' E 138°30'0 0.0
2018-May-05 04:30N 35°01' E 138°30'0 0.0
2018-May-05 04:00N 35°01' E 138°30'0 0.0
2018-May-05 03:30N 35°01' E 138°30'0 0.0
2018-May-05 03:00N 35°01' E 138°30'0 0.0
2018-May-05 02:30N 35°01' E 138°30'0 0.0
2018-May-05 02:00N 35°01' E 138°30'0 0.0
2018-May-05 01:30N 35°01' E 138°30'0 0.0
2018-May-05 01:00N 35°01' E 138°30'0 0.0
2018-May-05 00:30N 35°01' E 138°30'0 0.0
2018-May-05 00:00N 35°01' E 138°30'0 0.0
2018-May-04 23:30N 35°01' E 138°30'0 0.0
2018-May-04 22:57N 35°01' E 138°30'0 0.0
2018-May-04 22:30N 35°01' E 138°30'0 0.0
2018-May-04 22:00N 35°01' E 138°30'0 0.0
2018-May-04 21:30N 35°01' E 138°30'0 0.0
2018-May-04 21:00N 35°01' E 138°30'0 0.0
2018-May-04 20:30N 35°01' E 138°30'0 0.0
2018-May-04 20:00N 35°01' E 138°30'0 0.0
2018-May-04 19:30N 35°01' E 138°30'0 0.0
2018-May-04 19:00N 35°01' E 138°30'0 0.0
2018-May-04 18:30N 35°01' E 138°30'0 0.0
2018-May-04 17:57N 35°01' E 138°30'0 0.0
2018-May-04 17:30N 35°01' E 138°30'0 0.0
2018-May-04 17:00N 35°01' E 138°30'0 0.0
2018-May-04 16:30N 35°01' E 138°30'0 0.0
2018-May-04 16:00N 35°01' E 138°30'0 0.0
2018-May-04 15:30N 35°01' E 138°30'0 0.0
2018-May-04 15:00N 35°01' E 138°30'0 0.0
2018-May-04 14:30N 35°01' E 138°30'0 0.0
2018-May-04 14:00N 35°01' E 138°30'0 0.0
2018-May-04 13:30N 35°01' E 138°30'0 0.0
2018-May-04 13:00N 35°01' E 138°30'0 0.0
2018-May-04 12:30N 35°01' E 138°30'0 0.0
2018-May-04 12:00N 35°01' E 138°30'0 0.0
2018-May-04 11:30N 35°01' E 138°30'0 0.0
2018-May-04 11:00N 35°01' E 138°30'0 0.0
2018-May-04 10:30N 35°01' E 138°30'0 0.0
2018-May-04 10:00N 35°01' E 138°30'0 0.0
2018-May-04 09:30N 35°01' E 138°30'0 0.0
2018-May-04 09:00N 35°01' E 138°30'0 0.0
2018-May-04 08:30N 35°01' E 138°30'0 0.0
2018-May-04 08:00N 35°01' E 138°30'0 0.0
2018-May-04 07:30N 35°01' E 138°30'0 0.0
2018-May-04 07:00N 35°01' E 138°30'0 0.0
2018-May-04 06:30N 35°01' E 138°30'0 0.0
2018-May-04 06:00N 35°01' E 138°30'0 0.0
2018-May-04 05:30N 35°01' E 138°30'0 0.0
2018-May-04 05:00N 35°01' E 138°30'0 0.0
2018-May-04 04:30N 35°01' E 138°30'0 0.0
2018-May-04 04:00N 35°01' E 138°30'0 0.0
2018-May-04 03:30N 35°01' E 138°30'0 0.0
2018-May-04 03:00N 35°01' E 138°30'0 0.0
2018-May-04 02:30N 35°01' E 138°30'0 0.0
2018-May-04 02:00N 35°01' E 138°30'0 0.0
2018-May-04 01:30N 35°01' E 138°30'0 0.0
2018-May-04 01:00N 35°01' E 138°30'0 0.0
2018-May-04 00:30N 35°01' E 138°30'0 0.0
2018-May-04 00:00N 35°01' E 138°30'0 0.0
2018-May-03 23:30N 35°01' E 138°30'0 0.0
2018-May-03 23:00N 35°01' E 138°30'0 0.0
2018-May-03 22:30N 35°01' E 138°30'0 0.0
2018-May-03 22:00N 35°01' E 138°30'0 0.0
2018-May-03 21:30N 35°01' E 138°30'0 0.0
2018-May-03 21:00N 35°01' E 138°30'0 0.0
2018-May-03 20:30N 35°01' E 138°30'0 0.0
2018-May-03 20:00N 35°01' E 138°30'0 0.0
2018-May-03 19:30N 35°01' E 138°30'0 0.0
2018-May-03 19:00N 35°01' E 138°30'0 0.0
2018-May-03 18:30N 35°01' E 138°30'0 0.0
2018-May-03 18:00N 35°01' E 138°30'0 0.0
2018-May-03 17:30N 35°01' E 138°30'0 0.0
2018-May-03 17:00N 35°01' E 138°30'0 0.0
2018-May-03 16:30N 35°01' E 138°30'0 0.0
2018-May-03 16:00N 35°01' E 138°30'0 0.0
2018-May-03 15:30N 35°01' E 138°30'0 0.0
2018-May-03 15:00N 35°01' E 138°30'0 0.0
2018-May-03 14:30N 35°01' E 138°30'0 0.0
2018-May-03 14:00N 35°01' E 138°30'0 0.0
2018-May-03 13:30N 35°01' E 138°30'0 0.0
2018-May-03 13:00N 35°01' E 138°30'0 0.0
2018-May-03 12:30N 35°01' E 138°30'0 0.0
2018-May-03 12:00N 35°01' E 138°30'0 0.0
2018-May-03 11:30N 35°01' E 138°30'0 0.0
2018-May-03 11:00N 35°01' E 138°30'0 0.0
2018-May-03 10:30N 35°01' E 138°30'0 0.0
2018-May-03 10:00N 35°01' E 138°30'0 0.0
2018-May-03 09:30N 35°01' E 138°30'0 0.0
2018-May-03 08:57N 35°01' E 138°30'0 0.0
2018-May-03 08:30N 35°01' E 138°30'0 0.0
2018-May-03 08:00N 35°01' E 138°30'0 0.0
2018-May-03 07:30N 35°01' E 138°30'0 0.0
2018-May-03 07:00N 35°01' E 138°30'0 0.0
2018-May-03 06:30N 35°01' E 138°30'0 0.0
2018-May-03 06:00N 35°01' E 138°30'0 0.0
2018-May-03 05:30N 35°01' E 138°30'0 0.0
2018-May-03 05:00N 35°01' E 138°30'0 0.0
2018-May-03 04:30N 35°01' E 138°30'0 0.0
2018-May-03 04:00N 35°01' E 138°30'0 0.0
2018-May-03 03:27N 35°01' E 138°30'0 0.0
2018-May-03 03:00N 35°01' E 138°30'0 0.0
2018-May-03 02:30N 35°01' E 138°30'0 0.0
2018-May-03 02:00N 35°01' E 138°30'0 0.0
2018-May-03 01:30N 35°01' E 138°30'0 0.0
2018-May-03 01:00N 35°01' E 138°30'0 0.0
2018-May-03 00:30N 35°01' E 138°30'0 0.0
2018-May-03 00:00N 35°01' E 138°30'0 0.0
2018-May-02 23:30N 35°01' E 138°30'0 0.0
2018-May-02 23:00N 35°01' E 138°30'0 0.0
2018-May-02 22:30N 35°01' E 138°30'0 0.0
2018-May-02 22:00N 35°01' E 138°30'0 0.0
2018-May-02 21:30N 35°01' E 138°30'0 0.0
2018-May-02 21:00N 35°01' E 138°30'0 0.0
2018-May-02 20:30N 35°01' E 138°30'0 0.0
2018-May-02 20:00N 35°01' E 138°30'0 0.0
2018-May-02 19:30N 35°01' E 138°30'0 0.0
2018-May-02 19:00N 35°01' E 138°30'0 0.0
2018-May-02 18:30N 35°01' E 138°30'0 0.0
2018-May-02 18:00N 35°01' E 138°30'0 0.0
2018-May-02 17:30N 35°01' E 138°30'0 0.0
2018-May-02 17:00N 35°01' E 138°30'0 0.0
2018-May-02 16:30N 35°01' E 138°30'0 0.0
2018-May-02 16:00N 35°01' E 138°30'0 0.0
2018-May-02 15:30N 35°01' E 138°30'0 0.0
2018-May-02 15:00N 35°01' E 138°30'0 0.0
2018-May-02 14:30N 35°01' E 138°30'0 0.0
2018-May-02 14:00N 35°01' E 138°30'0 0.0
2018-May-02 13:30N 35°01' E 138°30'0 0.0
2018-May-02 13:00N 35°01' E 138°30'0 0.0
2018-May-02 12:30N 35°01' E 138°30'0 0.0
2018-May-02 12:00N 35°01' E 138°30'0 0.0
2018-May-02 11:30N 35°01' E 138°30'0 0.0
2018-May-02 11:00N 35°01' E 138°30'0 0.0
2018-May-02 10:30N 35°01' E 138°30'0 0.0
2018-May-02 10:00N 35°01' E 138°30'0 0.0
2018-May-02 09:30N 35°01' E 138°30'0 0.0
2018-May-02 09:00N 35°01' E 138°30'0 0.0
2018-May-02 08:30N 35°01' E 138°30'0 0.0
2018-May-02 08:00N 35°01' E 138°30'0 0.0
2018-May-02 07:30N 35°01' E 138°30'0 0.0
2018-May-02 07:00N 35°01' E 138°30'0 0.0
2018-May-02 06:30N 35°01' E 138°30'0 0.0
2018-May-02 06:00N 35°01' E 138°30'0 0.0
2018-May-02 05:30N 35°01' E 138°30'0 0.0
2018-May-02 05:00N 35°01' E 138°30'0 0.0
2018-May-02 04:30N 35°01' E 138°30'0 0.0
2018-May-02 04:00N 35°01' E 138°30'0 0.0
2018-May-02 03:30N 35°01' E 138°30'0 0.0
2018-May-02 03:00N 35°01' E 138°30'0 0.0
2018-May-02 02:30N 35°01' E 138°30'0 0.0
2018-May-02 02:00N 35°01' E 138°30'0 0.0
2018-May-02 01:30N 35°01' E 138°30'0 0.0
2018-May-02 01:00N 35°01' E 138°30'0 0.0
2018-May-02 00:30N 35°01' E 138°30'0 0.0
2018-May-02 00:00N 35°01' E 138°30'0 0.0
2018-May-01 23:30N 35°01' E 138°30'0 0.0
2018-May-01 23:00N 35°01' E 138°30'0 0.0
2018-May-01 22:30N 35°01' E 138°30'0 0.0
2018-May-01 22:00N 35°01' E 138°30'0 0.0
2018-May-01 21:30N 35°01' E 138°30'0 0.0
2018-May-01 21:00N 35°01' E 138°30'0 0.0
2018-May-01 20:30N 35°01' E 138°30'0 0.0
2018-May-01 20:00N 35°01' E 138°30'0 0.0
2018-May-01 19:30N 35°01' E 138°30'0 0.0
2018-May-01 19:00N 35°01' E 138°30'0 0.0
2018-May-01 18:30N 35°01' E 138°30'0 0.0
2018-May-01 18:00N 35°01' E 138°30'0 0.0
2018-May-01 17:30N 35°01' E 138°30'0 0.0
2018-May-01 17:00N 35°01' E 138°30'0 0.0
2018-May-01 16:30N 35°01' E 138°30'0 0.0
2018-May-01 16:00N 35°01' E 138°30'0 0.0
2018-May-01 15:30N 35°01' E 138°30'0 0.0
2018-May-01 15:00N 35°01' E 138°30'0 0.0
2018-May-01 14:30N 35°01' E 138°30'0 0.0
2018-May-01 14:00N 35°01' E 138°30'0 0.0
2018-May-01 13:30N 35°01' E 138°30'0 0.0
2018-May-01 13:00N 35°01' E 138°30'0 0.0
2018-May-01 12:30N 35°01' E 138°30'0 0.0
2018-May-01 11:57N 35°01' E 138°30'0 0.0
2018-May-01 11:30N 35°01' E 138°30'0 0.0
2018-May-01 11:00N 35°01' E 138°30'0 0.0
2018-May-01 10:30N 35°01' E 138°30'0 0.0
2018-May-01 10:00N 35°01' E 138°30'0 0.0
2018-May-01 09:30N 35°01' E 138°30'0 0.0
2018-May-01 09:00N 35°01' E 138°30'0 0.0
2018-May-01 08:30N 35°01' E 138°30'0 0.0
2018-May-01 08:00N 35°01' E 138°30'0 0.0
2018-May-01 07:30N 35°01' E 138°30'0 0.0
2018-May-01 07:00N 35°01' E 138°30'0 0.0
2018-May-01 06:30N 35°01' E 138°30'0 0.0
2018-May-01 06:00N 35°01' E 138°30'0 0.0
2018-May-01 05:30N 35°01' E 138°30'0 0.0
2018-May-01 05:00N 35°01' E 138°30'0 0.0
2018-May-01 04:30N 35°01' E 138°30'0 0.0
2018-May-01 04:00N 35°01' E 138°30'0 0.0
2018-May-01 03:30N 35°01' E 138°30'0 0.0
2018-May-01 03:00N 35°01' E 138°30'0 0.0
2018-May-01 02:30N 35°01' E 138°30'0 0.0
2018-May-01 02:00N 35°01' E 138°30'0 0.0
2018-May-01 01:30N 35°01' E 138°30'0 0.0
2018-May-01 01:00N 35°01' E 138°30'0 0.0
2018-May-01 00:30N 35°01' E 138°30'0 0.0
2018-May-01 00:00N 35°01' E 138°30'0 0.0
2018-Apr-30 23:24N 35°01' E 138°30'0 0.0
2018-Apr-30 23:00N 35°01' E 138°30'0 0.0
2018-Apr-30 22:30N 35°01' E 138°30'0 0.0
2018-Apr-30 22:00N 35°01' E 138°30'0 0.0
2018-Apr-30 21:30N 35°01' E 138°30'0 0.0
2018-Apr-30 21:00N 35°01' E 138°30'0 0.0
2018-Apr-30 20:30N 35°01' E 138°30'0 0.0
2018-Apr-30 20:00N 35°01' E 138°30'0 0.0
2018-Apr-30 19:30N 35°01' E 138°30'0 0.0
2018-Apr-30 19:00N 35°01' E 138°30'0 0.0
2018-Apr-30 18:30N 35°01' E 138°30'0 0.0
2018-Apr-30 18:00N 35°01' E 138°30'0 0.0
2018-Apr-30 17:30N 35°01' E 138°30'0 0.0
2018-Apr-30 17:00N 35°01' E 138°30'0 0.0
2018-Apr-30 16:30N 35°01' E 138°30'0 0.0
2018-Apr-30 16:00N 35°01' E 138°30'0 0.0
2018-Apr-30 15:30N 35°01' E 138°30'0 0.0
2018-Apr-30 15:00N 35°01' E 138°30'0 0.0
2018-Apr-30 14:30N 35°01' E 138°30'0 0.0
2018-Apr-30 14:00N 35°01' E 138°30'0 0.0
2018-Apr-30 13:30N 35°01' E 138°30'0 0.0
2018-Apr-30 13:00N 35°01' E 138°30'0 0.0
2018-Apr-30 12:30N 35°01' E 138°30'0 0.0
2018-Apr-30 12:00N 35°01' E 138°30'0 0.0
2018-Apr-30 11:30N 35°01' E 138°30'0 0.0
2018-Apr-30 11:00N 35°01' E 138°30'0 0.0
2018-Apr-30 10:30N 35°01' E 138°30'0 0.0
2018-Apr-30 10:00N 35°01' E 138°30'0 0.0
2018-Apr-30 09:30N 35°01' E 138°30'0 0.0
2018-Apr-30 09:00N 35°01' E 138°30'0 0.0
2018-Apr-30 08:30N 35°01' E 138°30'0 0.0
2018-Apr-30 08:00N 35°01' E 138°30'0 0.0
2018-Apr-30 07:30N 35°01' E 138°30'0 0.0
2018-Apr-30 07:00N 35°01' E 138°30'0 0.0
2018-Apr-30 06:30N 35°01' E 138°30'0 0.0
2018-Apr-30 06:00N 35°01' E 138°30'0 0.0
2018-Apr-30 05:30N 35°01' E 138°30'0 0.0
2018-Apr-30 05:00N 35°01' E 138°30'0 0.0
2018-Apr-30 04:30N 35°01' E 138°30'0 0.0
2018-Apr-30 04:00N 35°01' E 138°30'0 0.0
2018-Apr-30 03:30N 35°01' E 138°30'0 0.0
2018-Apr-30 03:00N 35°01' E 138°30'0 0.0
2018-Apr-30 02:30N 35°01' E 138°30'0 0.0
2018-Apr-30 02:00N 35°01' E 138°30'0 0.0
2018-Apr-30 01:30N 35°01' E 138°30'0 0.0
2018-Apr-30 01:00N 35°01' E 138°30'0 0.0
2018-Apr-30 00:30N 35°01' E 138°30'0 0.0
2018-Apr-30 00:00N 35°01' E 138°30'0 0.0
2018-Apr-29 23:30N 35°01' E 138°30'0 0.0
2018-Apr-29 23:00N 35°01' E 138°30'0 0.0
2018-Apr-29 22:30N 35°01' E 138°30'0 0.0
2018-Apr-29 22:00N 35°01' E 138°30'0 0.0
2018-Apr-29 21:30N 35°01' E 138°30'0 0.0
2018-Apr-29 21:00N 35°01' E 138°30'0 0.0
2018-Apr-29 20:30N 35°01' E 138°30'0 0.0
2018-Apr-29 20:00N 35°01' E 138°30'  

Dump ship's entire track history